Time;durP1;ratioP1;P1;durP2;ratioP2;P2;SDS_P1;SDS_P2;PMS_P1;PMS_P2;Temp;Humidity;BMP_temperature;BMP_pressure;BME280_temperature;BME280_humidity;BME280_pressure;Samples;Min_cycle;Max_cycle;Signal;HPM_P1;HPM_P2
2021/04/21 00:01:37;;;;;;;5.47;4.50;;;8.20;79.90;;;;;;5002490;28;20852;-88
2021/04/21 00:04:04;;;;;;;7.70;4.80;;;8.10;79.20;;;;;;5004932;28;20230;-89
2021/04/21 00:06:30;;;;;;;6.80;4.90;;;8.10;79.80;;;;;;5008983;28;20231;-88
2021/04/21 00:08:57;;;;;;;6.40;5.13;;;8.10;80.60;;;;;;5002355;28;20211;-87
2021/04/21 00:11:23;;;;;;;6.37;4.17;;;8.00;81.00;;;;;;5004061;28;20255;-87
2021/04/21 00:13:49;;;;;;;6.17;4.73;;;7.90;82.40;;;;;;5006595;28;20696;-87
2021/04/21 00:16:16;;;;;;;7.33;4.97;;;8.00;85.00;;;;;;5006017;28;20338;-87
2021/04/21 00:18:44;;;;;;;6.33;4.97;;;8.00;85.00;;;;;;5001508;28;20234;-88
2021/04/21 00:21:10;;;;;;;6.67;5.10;;;8.10;86.10;;;;;;5006968;28;20707;-87
2021/04/21 00:23:38;;;;;;;6.87;5.20;;;8.10;85.20;;;;;;5001745;28;20204;-87
2021/04/21 00:26:09;;;;;;;6.87;4.87;;;8.10;85.90;;;;;;5004689;28;20216;-87
2021/04/21 00:28:37;;;;;;;11.10;6.00;;;7.90;85.20;;;;;;5005362;28;20242;-88
2021/04/21 00:31:05;;;;;;;7.20;4.93;;;7.90;86.40;;;;;;5001592;28;20220;-87
2021/04/21 00:33:33;;;;;;;6.47;5.47;;;7.80;86.80;;;;;;5011558;28;20188;-86
2021/04/21 00:36:00;;;;;;;7.80;5.67;;;7.70;87.10;;;;;;5003256;28;20664;-87
2021/04/21 00:38:26;;;;;;;6.27;5.33;;;7.60;87.40;;;;;;5006653;28;20235;-88
2021/04/21 00:40:57;;;;;;;9.03;5.13;;;7.60;87.50;;;;;;5003115;28;20232;-87
2021/04/21 00:43:35;;;;;;;7.97;5.63;;;7.50;87.40;;;;;;5010713;28;20713;-87
2021/04/21 00:46:09;;;;;;;8.03;5.07;;;7.50;87.90;;;;;;5008222;28;20220;-87
2021/04/21 00:48:55;;;;;;;7.93;4.77;;;7.40;88.20;;;;;;5004452;28;20180;-88
2021/04/21 00:51:53;;;;;;;7.70;5.07;;;7.40;87.80;;;;;;5006325;28;20648;-87
2021/04/21 00:54:44;;;;;;;7.00;4.87;;;7.30;87.60;;;;;;4989836;28;20290;-88
2021/04/21 00:57:48;;;;;;;8.07;4.70;;;7.30;87.70;;;;;;5002534;28;20204;-88
2021/04/21 01:00:19;;;;;;;6.40;5.03;;;7.30;88.80;;;;;;4995261;28;20274;-87
2021/04/21 01:03:14;;;;;;;9.77;5.87;;;7.30;89.30;;;;;;5010560;28;20193;-87
2021/04/21 01:05:51;;;;;;;7.23;4.67;;;7.20;90.10;;;;;;4987365;28;20212;-87
2021/04/21 01:08:26;;;;;;;7.47;4.90;;;7.20;90.20;;;;;;5009197;28;20274;-88
2021/04/21 01:11:04;;;;;;;7.33;5.10;;;7.20;90.60;;;;;;5010106;28;20187;-88
2021/04/21 01:13:42;;;;;;;7.00;5.13;;;7.20;90.70;;;;;;5022057;28;20204;-87
2021/04/21 01:16:09;;;;;;;5.60;5.07;;;7.20;91.10;;;;;;4994045;28;20320;-87
2021/04/21 01:18:38;;;;;;;8.53;5.57;;;7.20;91.40;;;;;;4993330;28;20209;-87
2021/04/21 01:21:27;;;;;;;9.53;6.27;;;7.30;91.10;;;;;;5001758;28;20224;-87
2021/04/21 01:24:29;;;;;;;8.70;5.87;;;7.30;91.10;;;;;;4989996;28;20185;-86
2021/04/21 01:27:44;;;;;;;7.70;4.90;;;7.40;90.80;;;;;;4999581;28;20218;-87
2021/04/21 01:30:13;;;;;;;8.20;5.63;;;7.40;89.80;;;;;;4996263;28;20212;-87
2021/04/21 01:32:44;;;;;;;8.77;5.77;;;7.40;90.10;;;;;;5002122;28;20660;-88
2021/04/21 01:35:12;;;;;;;7.63;4.77;;;7.30;90.00;;;;;;5008516;28;20259;-87
2021/04/21 01:37:39;;;;;;;8.90;6.27;;;7.30;90.30;;;;;;5004913;28;20220;-87
2021/04/21 01:40:11;;;;;;;7.47;4.93;;;7.40;90.30;;;;;;5009152;28;20228;-88
2021/04/21 01:42:41;;;;;;;7.53;5.63;;;7.30;90.40;;;;;;5012642;28;20236;-87
2021/04/21 01:45:10;;;;;;;7.50;5.43;;;7.30;90.10;;;;;;5017593;28;20204;-87
2021/04/21 01:47:36;;;;;;;7.83;5.23;;;7.20;90.40;;;;;;5002855;28;20196;-87
2021/04/21 01:50:06;;;;;;;8.00;5.50;;;7.10;90.20;;;;;;5009609;28;20188;-86
2021/04/21 01:52:50;;;;;;;6.60;5.20;;;7.00;90.60;;;;;;5005182;28;20310;-87
2021/04/21 01:55:44;;;;;;;8.47;5.17;;;7.00;91.20;;;;;;5000788;28;20216;-88
2021/04/21 01:58:13;;;;;;;9.17;5.90;;;7.00;91.10;;;;;;4998964;28;20263;-87
2021/04/21 02:00:44;;;;;;;8.23;5.77;;;6.90;91.30;;;;;;4993173;28;20727;-88
2021/04/21 02:03:22;;;;;;;8.00;5.20;;;6.90;91.20;;;;;;5024997;28;20204;-87
2021/04/21 02:05:48;;;;;;;8.60;5.73;;;6.90;91.50;;;;;;5011255;28;20255;-87
2021/04/21 02:08:36;;;;;;;9.07;6.30;;;6.80;91.60;;;;;;5005882;28;20216;-87
2021/04/21 02:11:17;;;;;;;8.57;5.77;;;6.90;92.10;;;;;;5018546;28;20220;-87
2021/04/21 02:14:05;;;;;;;6.27;5.20;;;6.90;91.50;;;;;;5004610;28;20671;-87
2021/04/21 02:16:42;;;;;;;7.93;5.37;;;6.90;91.60;;;;;;4993436;28;20188;-86
2021/04/21 02:19:42;;;;;;;8.47;5.03;;;7.00;91.50;;;;;;5006639;28;20278;-87
2021/04/21 02:22:14;;;;;;;11.80;5.97;;;7.10;91.10;;;;;;4984483;28;20251;-87
2021/04/21 02:24:50;;;;;;;8.53;5.80;;;7.30;90.60;;;;;;5000272;28;20216;-87
2021/04/21 02:27:34;;;;;;;8.27;6.67;;;7.20;90.70;;;;;;5005676;28;20561;-86
2021/04/21 02:30:09;;;;;;;9.33;6.27;;;7.20;91.60;;;;;;5021115;28;20263;-86
2021/04/21 02:32:45;;;;;;;9.10;6.00;;;7.30;91.60;;;;;;5007778;28;20195;-88
2021/04/21 02:35:20;;;;;;;9.57;6.23;;;7.20;91.40;;;;;;5005978;28;20208;-87
2021/04/21 02:38:22;;;;;;;9.00;6.23;;;7.10;91.70;;;;;;4995301;28;20292;-86
2021/04/21 02:41:12;;;;;;;8.60;6.90;;;7.20;92.20;;;;;;5010168;28;20195;-87
2021/04/21 02:43:56;;;;;;;10.80;6.30;;;7.40;92.60;;;;;;5004451;28;20693;-87
2021/04/21 02:46:46;;;;;;;10.60;6.53;;;7.50;92.30;;;;;;5003042;28;20506;-87
2021/04/21 02:49:12;;;;;;;9.87;5.90;;;;;;;;;;5009068;28;20200;-88
2021/04/21 02:52:10;;;;;;;8.30;5.93;;;7.40;91.40;;;;;;5007578;28;20239;-88
2021/04/21 02:54:36;;;;;;;9.20;6.33;;;7.30;91.30;;;;;;4987921;28;20208;-88
2021/04/21 02:57:20;;;;;;;7.90;6.50;;;7.20;91.60;;;;;;5000913;28;20192;-88
2021/04/21 03:00:01;;;;;;;9.30;6.17;;;7.10;91.20;;;;;;5000738;28;20266;-88
2021/04/21 03:02:43;;;;;;;8.13;5.33;;;7.00;91.20;;;;;;5004756;28;20208;-88
2021/04/21 03:05:21;;;;;;;8.60;5.83;;;7.00;91.50;;;;;;5011540;28;20212;-88
2021/04/21 03:07:56;;;;;;;7.90;5.50;;;7.00;91.70;;;;;;5003067;28;20213;-88
2021/04/21 03:10:27;;;;;;;8.33;5.87;;;6.80;91.00;;;;;;5020361;28;20226;-87
2021/04/21 03:13:20;;;;;;;9.03;5.87;;;6.80;91.30;;;;;;5006585;28;20228;-88
2021/04/21 03:15:49;;;;;;;8.33;5.13;;;6.70;91.90;;;;;;4990924;28;20243;-87
2021/04/21 03:18:19;;;;;;;9.93;4.93;;;6.60;92.00;;;;;;5009566;28;20196;-88
2021/04/21 03:20:53;;;;;;;9.83;6.07;;;6.50;92.60;;;;;;5003418;28;20173;-88
2021/04/21 03:23:21;;;;;;;6.80;5.23;;;6.40;92.90;;;;;;5005428;28;20332;-88
2021/04/21 03:25:51;;;;;;;9.17;6.03;;;6.40;93.30;;;;;;4989141;28;20192;-87
2021/04/21 03:28:20;;;;;;;9.40;5.87;;;6.40;93.60;;;;;;5004018;28;20682;-88
2021/04/21 03:30:49;;;;;;;10.20;5.70;;;6.30;93.70;;;;;;5005109;28;20199;-88
2021/04/21 03:33:27;;;;;;;6.60;5.07;;;6.20;94.00;;;;;;5012173;28;20195;-87
2021/04/21 03:35:53;;;;;;;8.00;5.10;;;6.10;94.10;;;;;;5026203;28;20244;-87
2021/04/21 03:38:21;;;;;;;7.47;5.50;;;6.10;94.50;;;;;;5005046;28;20222;-87
2021/04/21 03:40:47;;;;;;;9.73;6.33;;;6.00;94.90;;;;;;4998093;28;20207;-88
2021/04/21 03:43:14;;;;;;;8.97;6.97;;;6.00;95.00;;;;;;5006470;28;20235;-88
2021/04/21 03:45:46;;;;;;;8.80;5.97;;;5.90;95.20;;;;;;4999353;28;20276;-88
2021/04/21 03:48:14;;;;;;;9.07;6.33;;;5.80;95.00;;;;;;5004872;28;20382;-88
2021/04/21 03:50:40;;;;;;;10.00;6.03;;;;;;;;;;5005875;28;20196;-87
2021/04/21 03:53:09;;;;;;;11.30;5.80;;;5.80;95.50;;;;;;5003512;28;20224;-87
2021/04/21 03:55:36;;;;;;;11.87;5.83;;;6.60;95.80;;;;;;5002766;28;20270;-88
2021/04/21 03:58:16;;;;;;;8.10;6.07;;;5.70;96.10;;;;;;5005625;28;20220;-88
2021/04/21 04:00:43;;;;;;;7.33;5.17;;;5.70;96.20;;;;;;5008042;28;20235;-88
2021/04/21 04:03:10;;;;;;;10.30;6.07;;;5.70;96.40;;;;;;5003892;28;20223;-88
2021/04/21 04:05:54;;;;;;;10.33;6.00;;;5.70;96.40;;;;;;5002462;28;20180;-87
2021/04/21 04:08:23;;;;;;;9.93;5.93;;;5.70;96.30;;;;;;5020684;28;20234;-88
2021/04/21 04:10:51;;;;;;;7.87;5.93;;;5.70;96.50;;;;;;5017194;28;20291;-88
2021/04/21 04:13:18;;;;;;;9.50;6.43;;;5.70;96.10;;;;;;5011533;28;20215;-88
2021/04/21 04:15:45;;;;;;;9.70;6.00;;;5.60;96.30;;;;;;5006887;28;20546;-88
2021/04/21 04:18:13;;;;;;;9.10;5.60;;;5.90;96.30;;;;;;5004111;28;20228;-88
2021/04/21 04:20:41;;;;;;;9.87;6.17;;;5.60;96.20;;;;;;5009148;28;20192;-88
2021/04/21 04:23:09;;;;;;;9.37;6.27;;;5.70;96.80;;;;;;5000197;28;20213;-87
2021/04/21 04:25:46;;;;;;;11.23;6.53;;;5.70;97.10;;;;;;5004856;28;20295;-87
2021/04/21 04:28:12;;;;;;;9.83;6.23;;;5.70;96.80;;;;;;5002807;28;20200;-88
2021/04/21 04:30:39;;;;;;;10.43;5.97;;;5.70;96.80;;;;;;5004282;28;20220;-88
2021/04/21 04:33:06;;;;;;;8.50;5.53;;;5.70;96.30;;;;;;5003026;28;20192;-87
2021/04/21 04:35:33;;;;;;;10.33;5.90;;;5.70;96.50;;;;;;5002120;28;20195;-88
2021/04/21 04:38:01;;;;;;;9.10;5.70;;;5.70;96.20;;;;;;5004727;28;20199;-88
2021/04/21 04:40:27;;;;;;;10.20;6.30;;;5.70;96.50;;;;;;5007667;28;20638;-88
2021/04/21 04:42:54;;;;;;;9.70;5.77;;;5.70;95.90;;;;;;5003922;28;20263;-88
2021/04/21 04:45:21;;;;;;;12.13;5.90;;;5.80;95.30;;;;;;5001558;28;20199;-87
2021/04/21 04:47:51;;;;;;;9.10;6.03;;;5.80;95.20;;;;;;4994646;28;20203;-87
2021/04/21 04:50:22;;;;;;;9.00;5.10;;;5.70;95.10;;;;;;4999012;28;20177;-88
2021/04/21 04:52:53;;;;;;;8.30;5.30;;;5.70;95.10;;;;;;5002460;28;20220;-88
2021/04/21 04:55:21;;;;;;;9.40;6.47;;;5.70;94.90;;;;;;5008794;28;20201;-88
2021/04/21 04:57:52;;;;;;;11.23;6.17;;;5.80;95.50;;;;;;5011149;28;20188;-88
2021/04/21 05:00:28;;;;;;;13.33;6.60;;;5.80;95.00;;;;;;5006702;28;20212;-87
2021/04/21 05:03:11;;;;;;;10.90;6.10;;;6.00;94.40;;;;;;4998572;28;20188;-87
2021/04/21 05:05:37;;;;;;;11.87;6.90;;;6.00;94.40;;;;;;5002272;28;20200;-86
2021/04/21 05:08:10;;;;;;;10.73;6.53;;;6.10;93.90;;;;;;5001608;28;20234;-88
2021/04/21 05:10:41;;;;;;;11.60;6.53;;;6.10;94.20;;;;;;5002461;28;20192;-87
2021/04/21 05:13:11;;;;;;;10.73;7.13;;;6.20;94.10;;;;;;5002452;28;20251;-87
2021/04/21 05:15:39;;;;;;;9.40;6.77;;;6.20;94.40;;;;;;5003920;28;20703;-87
2021/04/21 05:18:43;;;;;;;12.07;6.20;;;6.30;94.30;;;;;;5002642;28;20205;-87
2021/04/21 05:21:46;;;;;;;8.67;6.20;;;6.40;94.00;;;;;;5004465;28;20172;-87
2021/04/21 05:24:39;;;;;;;9.90;6.10;;;6.60;93.40;;;;;;4995765;28;21218;-87
2021/04/21 05:27:26;;;;;;;12.53;6.90;;;6.60;93.00;;;;;;4989619;28;20220;-88
2021/04/21 05:30:29;;;;;;;10.23;6.47;;;6.70;92.70;;;;;;5000774;28;20228;-87
2021/04/21 05:33:17;;;;;;;8.40;5.70;;;6.90;92.10;;;;;;4990918;28;20220;-88
2021/04/21 05:36:01;;;;;;;10.93;6.63;;;7.10;91.10;;;;;;5011947;28;20260;-88
2021/04/21 05:38:48;;;;;;;7.53;5.70;;;7.30;89.80;;;;;;5003264;28;20200;-87
2021/04/21 05:41:45;;;;;;;7.37;5.13;;;7.50;87.30;;;;;;4998934;28;20829;-87
2021/04/21 05:45:05;;;;;;;8.40;5.50;;;7.60;85.70;;;;;;5000744;28;20213;-87
2021/04/21 05:47:51;;;;;;;8.40;5.43;;;7.80;84.90;;;;;;4954113;28;20729;-88
2021/04/21 05:50:31;;;;;;;10.83;6.67;;;7.80;84.20;;;;;;5008404;28;20219;-88
2021/04/21 05:53:35;;;;;;;10.83;6.20;;;7.90;84.00;;;;;;4992389;28;20208;-87
2021/04/21 05:56:22;;;;;;;11.57;7.03;;;8.10;82.00;;;;;;5003950;28;20302;-88
2021/04/21 05:59:00;;;;;;;11.30;6.27;;;8.20;82.70;;;;;;4994416;28;20225;-88
2021/04/21 06:01:32;;;;;;;9.73;6.57;;;8.20;81.50;;;;;;4996448;28;20228;-87
2021/04/21 06:03:58;;;;;;;8.73;6.47;;;8.30;81.30;;;;;;5004749;28;20279;-87
2021/04/21 06:06:25;;;;;;;11.43;6.73;;;8.40;81.10;;;;;;5005614;28;20320;-87
2021/04/21 06:08:52;;;;;;;9.37;6.10;;;8.70;79.80;;;;;;4998246;28;20196;-88
2021/04/21 06:11:21;;;;;;;8.33;6.27;;;8.70;80.30;;;;;;5005233;28;20253;-87
2021/04/21 06:13:54;;;;;;;8.90;6.90;;;8.90;78.20;;;;;;5001595;28;20207;-87
2021/04/21 06:16:21;;;;;;;9.00;6.57;;;9.10;77.30;;;;;;4998290;28;20220;-87
2021/04/21 06:19:03;;;;;;;10.40;6.63;;;9.20;78.00;;;;;;5000587;28;20272;-87
2021/04/21 06:21:31;;;;;;;9.93;6.87;;;9.30;77.40;;;;;;4999113;28;20216;-88
2021/04/21 06:23:57;;;;;;;9.13;6.17;;;9.60;75.00;;;;;;5003629;28;20255;-87
2021/04/21 06:26:29;;;;;;;11.20;6.67;;;9.60;75.50;;;;;;5007897;28;20308;-86
2021/04/21 06:29:03;;;;;;;10.37;6.97;;;9.80;75.40;;;;;;5011114;28;20257;-87
2021/04/21 06:31:38;;;;;;;9.57;7.30;;;10.10;72.50;;;;;;4995764;28;20189;-87
2021/04/21 06:34:05;;;;;;;11.00;7.40;;;10.60;70.10;;;;;;5016288;28;20312;-87
2021/04/21 06:36:37;;;;;;;9.73;7.10;;;10.70;67.30;;;;;;5007693;28;20208;-87
2021/04/21 06:39:04;;;;;;;9.40;6.27;;;10.80;67.30;;;;;;5001714;28;20197;-88
2021/04/21 06:41:30;;;;;;;9.90;7.32;;;10.80;67.90;;;;;;5004019;28;20440;-85
2021/04/21 06:43:57;;;;;;;8.87;7.13;;;11.00;67.10;;;;;;5001443;28;20634;-87
2021/04/21 06:46:23;;;;;;;10.17;7.03;;;11.10;66.00;;;;;;5008248;28;20227;-83
2021/04/21 06:48:55;;;;;;;9.00;6.27;;;11.30;65.40;;;;;;5005048;28;20233;-85
2021/04/21 06:51:23;;;;;;;13.10;7.60;;;11.40;66.10;;;;;;5003304;28;20189;-84
2021/04/21 06:53:51;;;;;;;11.73;6.70;;;11.50;64.40;;;;;;4989573;28;20196;-84
2021/04/21 06:56:17;;;;;;;9.30;6.50;;;11.60;65.00;;;;;;5006317;28;22139;-84
2021/04/21 06:58:43;;;;;;;10.27;6.67;;;11.80;65.20;;;;;;5014524;28;21249;-84
2021/04/21 07:01:28;;;;;;;9.87;6.40;;;11.90;64.90;;;;;;5002084;28;20188;-86
2021/04/21 07:04:09;;;;;;;10.47;6.77;;;12.20;63.60;;;;;;5002813;28;20216;-86
2021/04/21 07:06:35;;;;;;;9.57;7.17;;;12.50;63.30;;;;;;5010473;28;20174;-85
2021/04/21 07:09:01;;;;;;;12.57;7.57;;;12.70;61.00;;;;;;5004204;28;20219;-85
2021/04/21 07:11:27;;;;;;;9.00;6.53;;;12.80;59.40;;;;;;5005601;28;20195;-84
2021/04/21 07:13:54;;;;;;;9.43;6.50;;;;;;;;;;5008097;28;20232;-85
2021/04/21 07:16:27;;;;;;;8.43;6.50;;;13.00;58.80;;;;;;5006938;28;20284;-84
2021/04/21 07:19:00;;;;;;;11.00;6.80;;;13.20;57.30;;;;;;5011019;28;20224;-84
2021/04/21 07:21:27;;;;;;;9.33;6.30;;;13.10;58.00;;;;;;5012890;28;20192;-83
2021/04/21 07:23:55;;;;;;;9.10;6.10;;;13.20;59.00;;;;;;5010890;28;20254;-83
2021/04/21 07:26:39;;;;;;;8.63;5.80;;;13.40;58.20;;;;;;5011166;28;20185;-84
2021/04/21 07:29:08;;;;;;;8.80;6.83;;;13.70;57.00;;;;;;5008358;28;20266;-84
2021/04/21 07:31:38;;;;;;;12.90;7.07;;;13.60;57.40;;;;;;5011603;28;20258;-84
2021/04/21 07:34:05;;;;;;;8.90;6.17;;;13.60;57.10;;;;;;5009797;28;20279;-84
2021/04/21 07:36:46;;;;;;;9.97;6.20;;;13.60;57.40;;;;;;5017206;28;20262;-86
2021/04/21 07:39:16;;;;;;;8.57;5.93;;;;;;;;;;4995455;28;20212;-85
2021/04/21 07:41:45;;;;;;;10.67;6.10;;;13.90;57.60;;;;;;5005405;28;20200;-85
2021/04/21 07:44:29;;;;;;;7.77;6.03;;;14.00;56.20;;;;;;5006183;28;20223;-86
2021/04/21 07:47:07;;;;;;;11.10;6.70;;;14.30;55.50;;;;;;5000393;28;20203;-84
2021/04/21 07:49:44;;;;;;;12.00;6.27;;;14.50;53.70;;;;;;5004948;28;20287;-84
2021/04/21 07:52:27;;;;;;;10.60;7.00;;;14.50;53.60;;;;;;5009882;28;20226;-84
2021/04/21 07:55:20;;;;;;;9.30;6.57;;;14.50;53.90;;;;;;4990252;28;20252;-85
2021/04/21 07:57:58;;;;;;;9.90;6.67;;;14.60;53.50;;;;;;5001976;28;20212;-85
2021/04/21 08:00:29;;;;;;;10.30;6.03;;;14.70;54.00;;;;;;4997595;28;20215;-84
2021/04/21 08:02:56;;;;;;;9.33;6.33;;;14.90;53.90;;;;;;5008134;28;20287;-85
2021/04/21 08:05:23;;;;;;;9.77;6.43;;;;;;;;;;5026373;28;20185;-84
2021/04/21 08:07:58;;;;;;;7.97;5.80;;;15.20;53.30;;;;;;5009630;28;20280;-86
2021/04/21 08:10:27;;;;;;;8.10;5.73;;;15.20;53.90;;;;;;5008299;28;20236;-85
2021/04/21 08:12:55;;;;;;;7.70;6.10;;;15.30;52.90;;;;;;5007372;28;20592;-85
2021/04/21 08:15:30;;;;;;;9.47;6.83;;;15.50;52.20;;;;;;5000333;28;20681;-84
2021/04/21 08:18:13;;;;;;;9.53;6.90;;;15.60;52.50;;;;;;4999440;28;20184;-85
2021/04/21 08:20:39;;;;;;;8.77;6.53;;;15.70;51.90;;;;;;5003470;28;20688;-85
2021/04/21 08:23:08;;;;;;;8.97;6.77;;;15.80;51.50;;;;;;4989503;28;20216;-85
2021/04/21 08:25:35;;;;;;;9.90;6.67;;;16.00;51.60;;;;;;4986855;28;20225;-85
2021/04/21 08:28:01;;;;;;;9.07;6.73;;;16.20;51.40;;;;;;5001267;28;20224;-85
2021/04/21 08:30:29;;;;;;;9.27;7.43;;;16.40;50.10;;;;;;5001704;28;20709;-84
2021/04/21 08:32:55;;;;;;;9.10;6.47;;;16.60;49.10;;;;;;5009162;28;20189;-85
2021/04/21 08:35:22;;;;;;;10.47;7.43;;;16.70;49.10;;;;;;4998699;28;20177;-85
2021/04/21 08:37:49;;;;;;;7.37;6.00;;;16.60;48.20;;;;;;5007135;28;20669;-84
2021/04/21 08:40:18;;;;;;;9.47;6.13;;;16.40;48.40;;;;;;5004442;28;20218;-85
2021/04/21 08:42:52;;;;;;;7.73;6.87;;;16.40;47.60;;;;;;5006287;28;20231;-86
2021/04/21 08:45:18;;;;;;;14.97;6.77;;;15.70;48.50;;;;;;4995480;28;20228;-85
2021/04/21 08:47:45;;;;;;;7.97;6.07;;;15.70;49.40;;;;;;5004163;28;20249;-84
2021/04/21 08:50:11;;;;;;;10.33;6.77;;;15.70;49.90;;;;;;5005637;28;20197;-85
2021/04/21 08:52:48;;;;;;;10.33;6.27;;;16.10;49.10;;;;;;5003399;28;20282;-85
2021/04/21 08:55:16;;;;;;;7.13;5.73;;;16.30;48.50;;;;;;4998786;28;20682;-85
2021/04/21 08:57:52;;;;;;;8.50;5.87;;;16.30;48.20;;;;;;4994251;28;20228;-85
2021/04/21 09:00:18;;;;;;;8.67;5.30;;;;;;;;;;4995622;28;20243;-84
2021/04/21 09:02:45;;;;;;;8.50;5.77;;;16.50;46.30;;;;;;5009463;28;20193;-85
2021/04/21 09:05:13;;;;;;;9.03;6.03;;;16.70;45.70;;;;;;5002146;28;20193;-85
2021/04/21 09:07:40;;;;;;;9.07;5.90;;;16.80;46.50;;;;;;5006707;28;20253;-86
2021/04/21 09:10:07;;;;;;;8.53;5.93;;;16.50;46.20;;;;;;5004192;28;20225;-85
2021/04/21 09:12:33;;;;;;;8.90;5.73;;;16.30;47.00;;;;;;4990665;28;20232;-85
2021/04/21 09:14:59;;;;;;;8.90;5.73;;;16.30;47.40;;;;;;5011306;28;20279;-84
2021/04/21 09:17:28;;;;;;;9.57;5.77;;;16.50;47.10;;;;;;5014633;28;20213;-83
2021/04/21 09:19:54;;;;;;;8.63;5.43;;;16.60;46.40;;;;;;5005181;28;20266;-85
2021/04/21 09:22:21;;;;;;;8.70;6.33;;;16.40;47.00;;;;;;5010246;28;20221;-88
2021/04/21 09:24:57;;;;;;;11.57;6.53;;;16.40;47.50;;;;;;5007517;28;20227;-85
2021/04/21 09:27:34;;;;;;;9.77;6.07;;;16.40;47.70;;;;;;5003588;28;20201;-86
2021/04/21 09:30:22;;;;;;;6.93;5.07;;;16.60;47.80;;;;;;5003851;28;20194;-85
2021/04/21 09:32:53;;;;;;;8.97;6.40;;;16.70;47.00;;;;;;5002512;28;20251;-87
2021/04/21 09:35:25;;;;;;;8.37;5.63;;;16.80;47.10;;;;;;4996405;28;20200;-87
2021/04/21 09:38:06;;;;;;;9.17;6.03;;;16.90;46.50;;;;;;5005311;28;20229;-86
2021/04/21 09:40:36;;;;;;;11.53;7.73;;;16.80;46.40;;;;;;4991507;28;20246;-86
2021/04/21 09:43:04;;;;;;;12.20;7.27;;;17.00;45.90;;;;;;5013916;28;20251;-87
2021/04/21 09:45:53;;;;;;;8.60;5.77;;;17.20;45.20;;;;;;5009909;28;20224;-86
2021/04/21 09:48:22;;;;;;;12.03;7.20;;;16.70;45.90;;;;;;5007545;28;20193;-85
2021/04/21 09:51:01;;;;;;;9.20;6.27;;;16.70;46.10;;;;;;5006297;28;20192;-85
2021/04/21 09:53:38;;;;;;;12.20;8.30;;;16.80;45.50;;;;;;5012453;28;20235;-84
2021/04/21 09:56:27;;;;;;;13.10;7.00;;;17.10;45.30;;;;;;5008290;28;20335;-85
2021/04/21 09:58:55;;;;;;;13.17;8.70;;;17.70;44.20;;;;;;5000411;28;20378;-87
2021/04/21 10:01:35;;;;;;;12.10;7.73;;;17.80;43.80;;;;;;5007495;28;20220;-86
2021/04/21 10:04:14;;;;;;;13.83;8.23;;;17.80;43.40;;;;;;4988807;28;20223;-85
2021/04/21 10:06:55;;;;;;;10.57;7.67;;;17.80;43.80;;;;;;5004337;28;20238;-86
2021/04/21 10:09:35;;;;;;;11.13;7.47;;;18.00;43.80;;;;;;5009825;28;20223;-85
2021/04/21 10:12:21;;;;;;;11.03;7.87;;;18.70;41.40;;;;;;5003486;28;20188;-85
2021/04/21 10:15:09;;;;;;;11.20;8.37;;;18.60;41.40;;;;;;5009117;28;20233;-85
2021/04/21 10:17:44;;;;;;;12.67;8.20;;;18.60;42.00;;;;;;5006247;28;20249;-84
2021/04/21 10:20:13;;;;;;;10.97;7.90;;;18.00;44.50;;;;;;4988784;28;20228;-84
2021/04/21 10:22:39;;;;;;;12.80;8.53;;;18.20;44.70;;;;;;4995007;28;20187;-85
2021/04/21 10:25:07;;;;;;;11.70;8.20;;;18.30;43.70;;;;;;5000875;28;20231;-86
2021/04/21 10:27:33;;;;;;;12.70;9.10;;;18.70;43.40;;;;;;4999208;28;20234;-85
2021/04/21 10:30:01;;;;;;;14.40;8.00;;;19.10;41.00;;;;;;5010346;28;20608;-85
2021/04/21 10:32:26;;;;;;;13.77;8.37;;;19.10;41.20;;;;;;5009422;28;20739;-84
2021/04/21 10:34:52;;;;;;;12.40;8.80;;;19.30;41.80;;;;;;5008007;28;20252;-85
2021/04/21 10:37:18;;;;;;;11.27;8.73;;;19.70;40.70;;;;;;5005256;28;20729;-85
2021/04/21 10:39:52;;;;;;;13.40;9.30;;;19.90;38.20;;;;;;4999695;28;20249;-84
2021/04/21 10:42:20;;;;;;;12.10;8.90;;;19.80;39.10;;;;;;4997022;28;20229;-86
2021/04/21 10:44:48;;;;;;;14.17;9.40;;;20.00;37.10;;;;;;5002102;28;20323;-86
2021/04/21 10:47:15;;;;;;;10.50;7.73;;;20.00;37.00;;;;;;5005641;28;20284;-86
2021/04/21 10:49:51;;;;;;;9.57;6.07;;;20.00;37.50;;;;;;5008002;28;20235;-85
2021/04/21 10:52:43;;;;;;;14.17;9.43;;;19.50;38.10;;;;;;5000499;28;20284;-84
2021/04/21 10:55:09;;;;;;;9.23;6.90;;;19.30;38.80;;;;;;5021424;28;20657;-83
2021/04/21 10:57:41;;;;;;;10.23;7.83;;;18.90;39.00;;;;;;5007166;28;20215;-83
2021/04/21 11:00:12;;;;;;;10.80;7.57;;;18.80;38.90;;;;;;5007448;28;20224;-83
2021/04/21 11:02:41;;;;;;;11.00;6.93;;;19.20;37.60;;;;;;5012102;28;20202;-85
2021/04/21 11:05:13;;;;;;;10.30;7.30;;;18.90;37.20;;;;;;5008789;28;20189;-83
2021/04/21 11:07:40;;;;;;;10.20;7.30;;;19.30;37.10;;;;;;4999649;28;20213;-83
2021/04/21 11:10:08;;;;;;;11.20;7.70;;;19.50;37.50;;;;;;5002160;28;20188;-86
2021/04/21 11:12:53;;;;;;;11.87;7.03;;;18.90;39.70;;;;;;5001174;28;20212;-86
2021/04/21 11:15:48;;;;;;;11.07;8.33;;;18.80;38.70;;;;;;5021935;28;20169;-85
2021/04/21 11:18:15;;;;;;;10.63;8.23;;;18.70;40.50;;;;;;4999770;28;20209;-87
2021/04/21 11:20:50;;;;;;;14.30;9.00;;;18.80;40.10;;;;;;5001145;28;20209;-86
2021/04/21 11:24:05;;;;;;;9.80;7.50;;;18.90;39.40;;;;;;5002133;28;20265;-86
2021/04/21 11:26:33;;;;;;;9.70;7.47;;;18.90;39.60;;;;;;4987860;28;20220;-87
2021/04/21 11:29:21;;;;;;;9.60;6.80;;;18.90;38.20;;;;;;5001500;28;20671;-87
2021/04/21 11:31:51;;;;;;;7.60;5.67;;;19.10;40.20;;;;;;5011342;28;20307;-87
2021/04/21 11:34:43;;;;;;;8.27;6.00;;;18.90;36.10;;;;;;5000139;28;20264;-86
2021/04/21 11:37:14;;;;;;;8.50;5.90;;;18.80;36.90;;;;;;4940556;29;20233;-86
2021/04/21 11:39:43;;;;;;;8.40;6.30;;;18.90;38.20;;;;;;4942504;29;20237;-86
2021/04/21 11:42:14;;;;;;;7.30;5.43;;;18.80;36.00;;;;;;4945057;29;20222;-85
2021/04/21 11:44:55;;;;;;;8.80;5.83;;;18.90;34.10;;;;;;4945517;28;20209;-86
2021/04/21 11:47:32;;;;;;;7.90;4.80;;;19.00;35.50;;;;;;4942993;29;20338;-87
2021/04/21 11:50:00;;;;;;;5.80;4.67;;;19.30;34.70;;;;;;4928129;29;20720;-86
2021/04/21 11:52:45;;;;;;;5.90;4.70;;;19.70;34.50;;;;;;4935799;29;21276;-86
2021/04/21 11:55:23;;;;;;;8.73;6.00;;;22.20;29.30;;;;;;4934891;29;20225;-86
2021/04/21 11:58:05;;;;;;;7.88;5.75;;;22.20;29.80;;;;;;4938740;29;20206;-86
2021/04/21 12:00:36;;;;;;;8.05;6.20;;;23.70;30.50;;;;;;4924270;29;20694;-87
2021/04/21 12:03:04;;;;;;;8.63;5.72;;;24.40;28.10;;;;;;4927106;29;23686;-87
2021/04/21 12:05:33;;;;;;;6.85;5.00;;;24.60;26.70;;;;;;4937785;29;20187;-86
2021/04/21 12:08:02;;;;;;;6.18;5.22;;;25.60;27.30;;;;;;4922723;29;20195;-86
2021/04/21 12:10:34;;;;;;;5.45;4.93;;;26.70;26.30;;;;;;4923217;28;20246;-86
2021/04/21 12:13:20;;;;;;;6.10;5.47;;;28.20;23.10;;;;;;4947406;28;20218;-86
2021/04/21 12:15:49;;;;;;;7.78;5.15;;;27.60;23.90;;;;;;4953378;28;20232;-86
2021/04/21 12:18:24;;;;;;;7.38;4.82;;;28.10;22.70;;;;;;4967076;28;20252;-87
2021/04/21 12:20:50;;;;;;;7.07;4.90;;;29.20;22.00;;;;;;4979728;28;20193;-86
2021/04/21 12:23:51;;;;;;;6.45;4.93;;;29.30;21.90;;;;;;5005161;28;20223;-83
2021/04/21 12:26:19;;;;;;;7.32;5.13;;;31.10;20.80;;;;;;4994574;28;20542;-84
2021/04/21 12:28:57;;;;;;;5.88;4.82;;;31.10;21.20;;;;;;5023167;28;20221;-85
2021/04/21 12:31:24;;;;;;;6.78;5.07;;;;;;;;;;5004743;28;20224;-85
2021/04/21 12:33:51;;;;;;;7.07;4.70;;;31.20;19.20;;;;;;5005163;28;20232;-84
2021/04/21 12:36:18;;;;;;;9.63;6.78;;;31.20;19.60;;;;;;5002940;28;20288;-84
2021/04/21 12:39:18;;;;;;;8.88;6.97;;;27.90;21.40;;;;;;5002712;28;20512;-84
2021/04/21 12:41:58;;;;;;;8.32;6.40;;;24.10;31.40;;;;;;5000275;28;20258;-84
2021/04/21 12:44:27;;;;;;;8.85;7.10;;;22.90;32.50;;;;;;4990456;28;20626;-86
2021/04/21 12:46:56;;;;;;;10.47;7.20;;;22.10;31.70;;;;;;5002523;28;20231;-84
2021/04/21 12:49:32;;;;;;;9.57;7.57;;;21.50;34.40;;;;;;5009664;28;20217;-85
2021/04/21 12:51:59;;;;;;;9.53;7.07;;;;;;;;;;5006746;28;20214;-84
2021/04/21 12:54:32;;;;;;;11.37;7.50;;;21.50;37.00;;;;;;5004010;28;20243;-84
2021/04/21 12:57:02;;;;;;;8.60;7.37;;;21.40;37.80;;;;;;5013247;28;20250;-83
2021/04/21 12:59:28;;;;;;;8.23;6.53;;;;;;;;;;5007416;28;20212;-85
2021/04/21 13:01:54;;;;;;;9.93;6.83;;;;;;;;;;5006903;28;20217;-85
2021/04/21 13:04:20;;;;;;;8.60;6.60;;;21.50;34.50;;;;;;5013736;28;20627;-87
2021/04/21 13:06:49;;;;;;;6.73;5.90;;;21.50;34.20;;;;;;5005831;28;20231;-86
2021/04/21 13:09:18;;;;;;;7.80;6.33;;;21.60;33.60;;;;;;5005171;28;20321;-85
2021/04/21 13:11:48;;;;;;;10.97;6.93;;;;;;;;;;5023222;28;20189;-85
2021/04/21 13:14:15;;;;;;;8.73;5.70;;;22.30;34.50;;;;;;4989485;28;20194;-85
2021/04/21 13:16:52;;;;;;;7.78;6.13;;;25.90;26.40;;;;;;5011428;28;20250;-85
2021/04/21 13:19:29;;;;;;;6.97;6.03;;;26.00;26.50;;;;;;5003948;28;20227;-85
2021/04/21 13:21:58;;;;;;;5.78;5.18;;;27.50;26.30;;;;;;5014987;28;20204;-84
2021/04/21 13:24:25;;;;;;;6.82;5.30;;;28.90;24.90;;;;;;5011792;28;23645;-85
2021/04/21 13:26:55;;;;;;;6.95;5.28;;;29.90;22.80;;;;;;5011339;28;20219;-85
2021/04/21 13:29:35;;;;;;;6.60;5.10;;;31.60;21.50;;;;;;5012639;28;20190;-85